createdAt,value
2023-01-29T00:00:40.800Z,1015.72
2023-01-29T00:01:40.884Z,1015.71
2023-01-29T00:02:40.791Z,1015.72
2023-01-29T00:03:40.779Z,1015.69
2023-01-29T00:04:40.787Z,1015.78
2023-01-29T00:05:40.749Z,1015.75
2023-01-29T00:06:40.768Z,1015.70
2023-01-29T00:07:40.755Z,1015.73
2023-01-29T00:08:41.735Z,1015.76
2023-01-29T00:09:40.781Z,1015.71
2023-01-29T00:10:40.707Z,1015.70
2023-01-29T00:11:40.695Z,1015.73
2023-01-29T00:12:40.687Z,1015.70
2023-01-29T00:13:40.677Z,1015.60
2023-01-29T00:14:40.654Z,1015.56
2023-01-29T00:15:40.673Z,1015.57
2023-01-29T00:16:40.723Z,1015.56
2023-01-29T00:17:40.613Z,1015.51
2023-01-29T00:18:40.653Z,1015.55
2023-01-29T00:19:40.625Z,1015.56
2023-01-29T00:20:40.584Z,1015.49
2023-01-29T00:21:40.573Z,1015.48
2023-01-29T00:22:40.576Z,1015.49
2023-01-29T00:23:40.561Z,1015.51
2023-01-29T00:24:40.558Z,1015.55
2023-01-29T00:25:40.563Z,1015.47
2023-01-29T00:26:40.517Z,1015.56
2023-01-29T00:27:40.564Z,1015.57
2023-01-29T00:28:40.525Z,1015.54
2023-01-29T00:29:40.487Z,1015.48
2023-01-29T00:30:40.495Z,1015.49
2023-01-29T00:31:41.617Z,1015.48
2023-01-29T00:32:40.443Z,1015.54
2023-01-29T00:33:41.490Z,1015.53
2023-01-29T00:34:40.434Z,1015.48
2023-01-29T00:35:40.433Z,1015.46
2023-01-29T00:36:40.407Z,1015.51
2023-01-29T00:37:41.438Z,1015.53
2023-01-29T00:38:40.389Z,1015.49
2023-01-29T00:39:47.763Z,1015.51
2023-01-29T00:40:41.378Z,1015.55
2023-01-29T00:41:40.395Z,1015.50
2023-01-29T00:42:40.363Z,1015.50
2023-01-29T00:43:40.391Z,1015.50
2023-01-29T00:44:40.310Z,1015.47
2023-01-29T00:45:40.324Z,1015.48
2023-01-29T00:46:40.351Z,1015.50
2023-01-29T00:47:40.305Z,1015.50
2023-01-29T00:48:40.299Z,1015.53
2023-01-29T00:49:40.317Z,1015.51
2023-01-29T00:50:40.254Z,1015.49
2023-01-29T00:51:40.257Z,1015.45
2023-01-29T00:52:41.250Z,1015.43
2023-01-29T00:53:40.231Z,1015.45
2023-01-29T00:54:40.287Z,1015.39
2023-01-29T00:55:40.205Z,1015.41
2023-01-29T00:56:41.225Z,1015.34
2023-01-29T00:57:40.224Z,1015.39
2023-01-29T00:58:40.169Z,1015.33
2023-01-29T00:59:40.182Z,1015.31
2023-01-29T01:00:40.224Z,1015.30
2023-01-29T01:01:40.162Z,1015.23
2023-01-29T01:02:40.148Z,1015.23
2023-01-29T01:03:40.112Z,1015.21
2023-01-29T01:04:40.108Z,1015.21
2023-01-29T01:05:41.072Z,1015.26
2023-01-29T01:06:41.106Z,1015.24
2023-01-29T01:07:40.074Z,1015.31
2023-01-29T01:08:40.076Z,1015.27
2023-01-29T01:09:40.076Z,1015.34
2023-01-29T01:10:40.056Z,1015.26
2023-01-29T01:11:40.043Z,1015.33
2023-01-29T01:12:39.999Z,1015.35
2023-01-29T01:13:40.028Z,1015.27
2023-01-29T01:14:40.005Z,1015.29
2023-01-29T01:15:40.007Z,1015.28
2023-01-29T01:16:41.033Z,1015.30
2023-01-29T01:17:39.965Z,1015.28
2023-01-29T01:18:39.958Z,1015.29
2023-01-29T01:19:39.948Z,1015.29
2023-01-29T01:20:40.948Z,1015.27
2023-01-29T01:21:39.956Z,1015.32
2023-01-29T01:22:40.888Z,1015.31
2023-01-29T01:23:39.921Z,1015.27
2023-01-29T01:24:39.882Z,1015.25
2023-01-29T01:25:39.883Z,1015.20
2023-01-29T01:26:39.857Z,1015.23
2023-01-29T01:27:39.864Z,1015.18
2023-01-29T01:28:39.892Z,1015.13
2023-01-29T01:29:40.853Z,1015.10
2023-01-29T01:30:39.865Z,1015.08
2023-01-29T01:31:39.844Z,1015.08
2023-01-29T01:32:39.809Z,1015.02
2023-01-29T01:33:40.822Z,1015.01
2023-01-29T01:34:39.770Z,1015.05
2023-01-29T01:35:40.822Z,1015.00
2023-01-29T01:36:39.750Z,1015.02
2023-01-29T01:37:39.754Z,1014.95
2023-01-29T01:38:40.749Z,1015.02
2023-01-29T01:39:40.725Z,1014.98
2023-01-29T01:40:39.729Z,1014.94
2023-01-29T01:41:39.703Z,1014.96
2023-01-29T01:42:39.697Z,1014.96
2023-01-29T01:43:39.683Z,1014.93
2023-01-29T01:44:39.817Z,1014.93
2023-01-29T01:45:39.739Z,1014.96
2023-01-29T01:46:39.661Z,1014.95
2023-01-29T01:47:39.640Z,1014.87
2023-01-29T01:48:39.623Z,1014.89
2023-01-29T01:49:39.625Z,1014.91
2023-01-29T01:50:40.612Z,1014.85
2023-01-29T01:51:40.643Z,1014.86
2023-01-29T01:52:39.600Z,1014.92
2023-01-29T01:53:40.531Z,1014.98
2023-01-29T01:54:40.544Z,1014.91
2023-01-29T01:55:39.569Z,1014.98
2023-01-29T01:56:39.546Z,1014.98
2023-01-29T01:57:39.537Z,1015.03
2023-01-29T01:58:39.503Z,1015.01
2023-01-29T01:59:39.492Z,1014.98
2023-01-29T02:00:39.585Z,1015.05
2023-01-29T02:01:39.525Z,1015.02
2023-01-29T02:02:39.473Z,1015.04
2023-01-29T02:03:39.469Z,1015.04
2023-01-29T02:04:39.475Z,1015.01
2023-01-29T02:05:39.473Z,1015.09
2023-01-29T02:06:39.455Z,1015.06
2023-01-29T02:07:39.436Z,1015.09
2023-01-29T02:08:40.404Z,1015.04
2023-01-29T02:09:40.393Z,1015.07
2023-01-29T02:10:39.399Z,1015.00
2023-01-29T02:11:39.409Z,1015.02
2023-01-29T02:12:39.395Z,1014.97
2023-01-29T02:13:39.365Z,1015.01
2023-01-29T02:14:40.404Z,1015.07
2023-01-29T02:15:39.344Z,1014.97
2023-01-29T02:16:39.353Z,1015.08
2023-01-29T02:17:39.438Z,1015.03
2023-01-29T02:18:39.321Z,1014.99
2023-01-29T02:19:39.349Z,1015.01
2023-01-29T02:20:39.275Z,1015.08
2023-01-29T02:21:39.317Z,1015.05
2023-01-29T02:22:39.257Z,1015.07
2023-01-29T02:23:39.328Z,1015.08
2023-01-29T02:24:39.264Z,1015.09
2023-01-29T02:25:39.213Z,1015.05
2023-01-29T02:26:39.226Z,1015.07
2023-01-29T02:27:39.257Z,1015.10
2023-01-29T02:28:39.226Z,1015.10
2023-01-29T02:29:40.200Z,1015.11
2023-01-29T02:30:39.362Z,1015.08
2023-01-29T02:31:39.271Z,1015.13
2023-01-29T02:32:39.148Z,1015.02
2023-01-29T02:33:39.154Z,1015.04
2023-01-29T02:34:39.145Z,1015.01
2023-01-29T02:35:39.106Z,1014.96
2023-01-29T02:36:40.095Z,1014.89
2023-01-29T02:37:40.111Z,1014.96
2023-01-29T02:38:39.087Z,1014.90
2023-01-29T02:39:39.087Z,1015.07
2023-01-29T02:40:39.050Z,1015.04
2023-01-29T02:41:40.088Z,1015.07
2023-01-29T02:42:39.054Z,1015.10
2023-01-29T02:43:39.038Z,1015.23
2023-01-29T02:44:39.040Z,1015.25
2023-01-29T02:45:40.048Z,1015.24
2023-01-29T02:46:39.020Z,1015.20
2023-01-29T02:47:39.007Z,1015.17
2023-01-29T02:48:38.968Z,1015.12
2023-01-29T02:49:38.983Z,1015.18
2023-01-29T02:50:39.021Z,1015.19
2023-01-29T02:51:38.928Z,1015.21
2023-01-29T02:52:38.932Z,1015.20
2023-01-29T02:53:39.968Z,1015.15
2023-01-29T02:54:38.924Z,1015.13
2023-01-29T02:55:39.941Z,1015.21
2023-01-29T02:56:39.937Z,1015.13
2023-01-29T02:57:38.905Z,1015.13
2023-01-29T02:58:38.893Z,1015.16
2023-01-29T02:59:38.847Z,1015.11
2023-01-29T03:00:38.862Z,1015.08
2023-01-29T03:01:39.891Z,1015.13
2023-01-29T03:02:38.884Z,1015.11
2023-01-29T03:03:38.827Z,1015.09
2023-01-29T03:04:38.815Z,1015.07
2023-01-29T03:05:39.811Z,1015.05
2023-01-29T03:06:38.820Z,1015.07
2023-01-29T03:07:38.759Z,1015.05
2023-01-29T03:08:39.860Z,1015.00
2023-01-29T03:09:38.752Z,1014.97
2023-01-29T03:10:38.737Z,1014.93
2023-01-29T03:11:38.732Z,1015.00
2023-01-29T03:12:38.736Z,1014.89
2023-01-29T03:13:38.717Z,1014.93
2023-01-29T03:14:38.715Z,1014.88
2023-01-29T03:15:39.690Z,1014.89
2023-01-29T03:16:38.746Z,1014.93
2023-01-29T03:17:38.693Z,1014.87
2023-01-29T03:18:38.655Z,1014.94
2023-01-29T03:19:38.649Z,1014.90
2023-01-29T03:20:38.630Z,1014.99
2023-01-29T03:21:39.637Z,1014.96
2023-01-29T03:22:38.672Z,1014.99
2023-01-29T03:23:38.612Z,1014.93
2023-01-29T03:24:38.624Z,1014.90
2023-01-29T03:25:38.574Z,1014.89
2023-01-29T03:26:38.581Z,1014.87
2023-01-29T03:27:38.612Z,1014.83
2023-01-29T03:28:38.565Z,1014.82
2023-01-29T03:29:38.532Z,1014.89
2023-01-29T03:30:38.536Z,1014.88
2023-01-29T03:31:38.594Z,1014.91
2023-01-29T03:32:38.522Z,1014.95
2023-01-29T03:33:38.516Z,1014.93
2023-01-29T03:34:38.480Z,1014.92
2023-01-29T03:35:38.487Z,1014.95
2023-01-29T03:36:38.453Z,1014.94
2023-01-29T03:37:38.471Z,1014.91
2023-01-29T03:38:38.456Z,1014.95
2023-01-29T03:39:38.455Z,1014.89
2023-01-29T03:40:38.421Z,1014.88
2023-01-29T03:41:38.414Z,1014.89
2023-01-29T03:42:38.437Z,1015.04
2023-01-29T03:43:39.419Z,1014.92
2023-01-29T03:44:39.357Z,1015.07
2023-01-29T03:45:38.423Z,1014.92
2023-01-29T03:46:38.368Z,1014.92
2023-01-29T03:47:38.348Z,1014.95
2023-01-29T03:48:38.335Z,1014.99
2023-01-29T03:49:38.326Z,1014.98
2023-01-29T03:50:38.332Z,1014.84
2023-01-29T03:51:39.359Z,1014.83
2023-01-29T03:52:38.285Z,1014.75
2023-01-29T03:53:39.279Z,1014.83
2023-01-29T03:54:39.264Z,1014.77
2023-01-29T03:55:38.249Z,1014.90
2023-01-29T03:56:38.278Z,1014.88
2023-01-29T03:57:38.265Z,1014.95
2023-01-29T03:58:38.230Z,1014.87
2023-01-29T03:59:38.217Z,1014.91
2023-01-29T04:00:38.201Z,1014.99
2023-01-29T04:01:39.236Z,1014.86
2023-01-29T04:02:38.226Z,1014.84
2023-01-29T04:03:39.505Z,1014.79
2023-01-29T04:04:38.152Z,1014.83
2023-01-29T04:05:39.156Z,1014.78
2023-01-29T04:06:38.162Z,1014.78
2023-01-29T04:07:38.159Z,1014.91
2023-01-29T04:08:38.960Z,1014.85
2023-01-29T04:09:38.161Z,1014.82
2023-01-29T04:10:38.087Z,1014.83
2023-01-29T04:11:38.103Z,1014.86
2023-01-29T04:12:38.078Z,1014.87
2023-01-29T04:13:38.183Z,1014.84
2023-01-29T04:14:38.075Z,1014.88
2023-01-29T04:15:38.043Z,1014.77
2023-01-29T04:16:38.118Z,1014.78
2023-01-29T04:17:38.022Z,1014.81
2023-01-29T04:18:38.006Z,1014.74
2023-01-29T04:19:38.013Z,1014.71
2023-01-29T04:20:38.979Z,1014.65
2023-01-29T04:21:38.990Z,1014.66
2023-01-29T04:22:38.971Z,1014.73
2023-01-29T04:23:37.954Z,1014.69
2023-01-29T04:24:37.940Z,1014.62
2023-01-29T04:25:37.963Z,1014.66
2023-01-29T04:26:37.924Z,1014.63
2023-01-29T04:27:37.897Z,1014.60
2023-01-29T04:28:37.901Z,1014.57
2023-01-29T04:29:37.933Z,1014.56
2023-01-29T04:30:38.923Z,1014.55
2023-01-29T04:31:38.022Z,1014.53
2023-01-29T04:32:37.861Z,1014.54
2023-01-29T04:33:37.849Z,1014.52
2023-01-29T04:34:37.836Z,1014.57
2023-01-29T04:35:37.829Z,1014.65
2023-01-29T04:36:37.810Z,1014.65
2023-01-29T04:37:37.864Z,1014.56
2023-01-29T04:38:38.810Z,1014.63
2023-01-29T04:39:37.783Z,1014.56
2023-01-29T04:40:37.766Z,1014.57
2023-01-29T04:41:37.752Z,1014.55
2023-01-29T04:42:37.795Z,1014.48
2023-01-29T04:43:37.770Z,1014.44
2023-01-29T04:44:37.727Z,1014.44
2023-01-29T04:45:37.747Z,1014.40
2023-01-29T04:46:38.702Z,1014.37
2023-01-29T04:47:37.752Z,1014.35
2023-01-29T04:48:37.704Z,1014.33
2023-01-29T04:49:37.691Z,1014.32
2023-01-29T04:50:37.701Z,1014.28
2023-01-29T04:51:37.715Z,1014.23
2023-01-29T04:52:37.660Z,1014.18
2023-01-29T04:53:37.633Z,1014.20
2023-01-29T04:54:37.621Z,1014.20
2023-01-29T04:55:37.625Z,1014.19
2023-01-29T04:56:37.611Z,1014.13
2023-01-29T04:57:37.611Z,1014.19
2023-01-29T04:58:38.598Z,1014.09
2023-01-29T04:59:37.568Z,1014.14
2023-01-29T05:00:37.574Z,1014.00
2023-01-29T05:01:37.606Z,1014.09
2023-01-29T05:02:37.576Z,1013.98
2023-01-29T05:03:37.541Z,1014.01
2023-01-29T05:04:37.515Z,1014.00
2023-01-29T05:05:37.497Z,1014.00
2023-01-29T05:06:37.504Z,1013.96
2023-01-29T05:07:38.506Z,1013.97
2023-01-29T05:08:37.478Z,1014.01
2023-01-29T05:09:37.471Z,1014.04
2023-01-29T05:10:37.458Z,1013.96
2023-01-29T05:11:37.452Z,1013.95
2023-01-29T05:12:37.444Z,1013.94
2023-01-29T05:13:39.491Z,1013.95
2023-01-29T05:14:37.462Z,1013.97
2023-01-29T05:15:37.401Z,1014.06
2023-01-29T05:16:37.415Z,1014.01
2023-01-29T05:17:38.399Z,1014.02
2023-01-29T05:18:37.399Z,1013.94
2023-01-29T05:19:37.381Z,1013.99
2023-01-29T05:20:37.379Z,1013.99
2023-01-29T05:21:41.025Z,1013.92
2023-01-29T05:22:37.304Z,1014.03
2023-01-29T05:23:45.450Z,1013.97
2023-01-29T05:24:37.304Z,1013.93
2023-01-29T05:25:37.289Z,1013.94
2023-01-29T05:26:37.279Z,1013.94
2023-01-29T05:27:38.308Z,1013.92
2023-01-29T05:28:37.311Z,1013.99
2023-01-29T05:29:37.264Z,1013.91
2023-01-29T05:30:37.311Z,1013.91
2023-01-29T05:31:37.227Z,1013.93
2023-01-29T05:32:37.201Z,1013.93
2023-01-29T05:33:37.192Z,1013.95
2023-01-29T05:34:38.207Z,1013.86
2023-01-29T05:35:37.183Z,1013.88
2023-01-29T05:36:37.193Z,1013.94
2023-01-29T05:37:37.159Z,1013.89
2023-01-29T05:38:37.155Z,1013.80
2023-01-29T05:39:37.145Z,1013.75
2023-01-29T05:40:38.143Z,1013.85
2023-01-29T05:41:37.133Z,1013.81
2023-01-29T05:42:37.121Z,1013.75
2023-01-29T05:43:37.099Z,1013.75
2023-01-29T05:44:37.102Z,1013.71
2023-01-29T05:45:37.079Z,1013.68
2023-01-29T05:46:38.192Z,1013.67
2023-01-29T05:47:37.061Z,1013.73
2023-01-29T05:48:37.065Z,1013.74
2023-01-29T05:49:38.746Z,1013.80
2023-01-29T05:50:37.022Z,1013.80
2023-01-29T05:51:37.036Z,1013.82
2023-01-29T05:52:37.024Z,1013.84
2023-01-29T05:53:37.977Z,1013.84
2023-01-29T05:54:36.986Z,1013.92
2023-01-29T05:55:36.963Z,1013.93
2023-01-29T05:56:37.940Z,1013.92
2023-01-29T05:57:36.959Z,1013.95
2023-01-29T05:58:36.953Z,1013.87
2023-01-29T05:59:36.935Z,1013.87
2023-01-29T06:00:37.932Z,1013.93
2023-01-29T06:01:37.004Z,1013.88
2023-01-29T06:02:36.922Z,1013.90
2023-01-29T06:03:36.901Z,1013.91
2023-01-29T06:04:36.873Z,1013.91
2023-01-29T06:05:37.843Z,1013.89
2023-01-29T06:06:37.864Z,1013.97
2023-01-29T06:07:36.845Z,1013.87
2023-01-29T06:08:37.811Z,1013.93
2023-01-29T06:09:36.844Z,1013.90
2023-01-29T06:10:36.796Z,1013.95
2023-01-29T06:11:37.803Z,1013.88
2023-01-29T06:12:36.900Z,1013.87
2023-01-29T06:13:36.775Z,1013.89
2023-01-29T06:14:37.742Z,1013.83
2023-01-29T06:15:37.756Z,1013.89
2023-01-29T06:16:37.754Z,1013.86
2023-01-29T06:17:36.740Z,1013.94
2023-01-29T06:18:36.750Z,1013.90
2023-01-29T06:19:36.720Z,1013.91
2023-01-29T06:20:36.698Z,1013.90
2023-01-29T06:21:36.687Z,1013.93
2023-01-29T06:22:36.697Z,1013.91
2023-01-29T06:23:36.700Z,1013.99
2023-01-29T06:24:36.655Z,1014.05
2023-01-29T06:25:36.647Z,1014.03
2023-01-29T06:26:36.616Z,1014.05
2023-01-29T06:27:36.614Z,1013.98
2023-01-29T06:28:36.607Z,1013.99
2023-01-29T06:29:36.627Z,1014.03
2023-01-29T06:30:37.653Z,1014.13
2023-01-29T06:31:39.249Z,1014.17
2023-01-29T06:32:36.761Z,1014.14
2023-01-29T06:33:36.548Z,1014.18
2023-01-29T06:34:36.571Z,1014.23
2023-01-29T06:35:36.566Z,1014.34
2023-01-29T06:36:36.544Z,1014.35
2023-01-29T06:37:36.507Z,1014.30
2023-01-29T06:38:36.514Z,1014.27
2023-01-29T06:39:36.537Z,1014.34
2023-01-29T06:40:37.511Z,1014.29
2023-01-29T06:41:36.490Z,1014.32
2023-01-29T06:42:36.454Z,1014.34
2023-01-29T06:43:36.445Z,1014.38
2023-01-29T06:44:36.477Z,1014.39
2023-01-29T06:45:36.449Z,1014.44
2023-01-29T06:46:36.409Z,1014.45
2023-01-29T06:47:36.399Z,1014.43
2023-01-29T06:48:36.378Z,1014.52
2023-01-29T06:49:36.375Z,1014.45
2023-01-29T06:50:37.393Z,1014.47
2023-01-29T06:51:36.356Z,1014.58
2023-01-29T06:52:37.360Z,1014.51
2023-01-29T06:53:36.385Z,1014.58
2023-01-29T06:54:36.340Z,1014.56
2023-01-29T06:55:37.314Z,1014.54
2023-01-29T06:56:36.320Z,1014.59
2023-01-29T06:57:36.304Z,1014.61
2023-01-29T06:58:36.294Z,1014.62
2023-01-29T06:59:36.258Z,1014.63
2023-01-29T07:00:37.315Z,1014.67
2023-01-29T07:01:36.827Z,1014.68
2023-01-29T07:02:37.240Z,1014.65
2023-01-29T07:03:36.258Z,1014.60
2023-01-29T07:04:37.247Z,1014.56
2023-01-29T07:05:36.200Z,1014.57
2023-01-29T07:06:36.252Z,1014.61
2023-01-29T07:07:37.215Z,1014.61
2023-01-29T07:08:36.204Z,1014.61
2023-01-29T07:09:36.183Z,1014.63
2023-01-29T07:10:36.177Z,1014.65
2023-01-29T07:11:37.132Z,1014.62
2023-01-29T07:12:36.148Z,1014.66
2023-01-29T07:13:37.149Z,1014.67
2023-01-29T07:14:36.112Z,1014.75
2023-01-29T07:15:37.259Z,1014.78
2023-01-29T07:16:36.138Z,1014.76
2023-01-29T07:17:36.060Z,1014.81
2023-01-29T07:18:36.069Z,1014.81
2023-01-29T07:19:36.394Z,1014.91
2023-01-29T07:20:36.037Z,1014.94
2023-01-29T07:21:36.056Z,1014.93
2023-01-29T07:22:36.047Z,1014.96
2023-01-29T07:23:36.051Z,1014.92
2023-01-29T07:24:36.006Z,1014.93
2023-01-29T07:25:36.020Z,1014.88
2023-01-29T07:26:37.014Z,1014.88
2023-01-29T07:27:35.980Z,1014.80
2023-01-29T07:28:35.980Z,1014.90
2023-01-29T07:29:35.958Z,1014.81
2023-01-29T07:30:35.945Z,1014.92
2023-01-29T07:31:36.064Z,1014.93
2023-01-29T07:32:35.936Z,1014.95
2023-01-29T07:33:35.923Z,1014.86
2023-01-29T07:34:36.887Z,1014.89
2023-01-29T07:35:35.894Z,1014.92
2023-01-29T07:36:35.907Z,1014.90
2023-01-29T07:37:35.875Z,1014.89
2023-01-29T07:38:35.893Z,1014.84
2023-01-29T07:39:35.854Z,1014.91
2023-01-29T07:40:36.811Z,1014.85
2023-01-29T07:41:35.847Z,1014.85
2023-01-29T07:42:35.831Z,1014.87
2023-01-29T07:43:36.835Z,1014.83
2023-01-29T07:44:35.789Z,1014.76
2023-01-29T07:45:35.864Z,1014.74
2023-01-29T07:46:35.765Z,1014.76
2023-01-29T07:47:35.738Z,1014.74
2023-01-29T07:48:35.770Z,1014.74
2023-01-29T07:49:35.748Z,1014.73
2023-01-29T07:50:35.734Z,1014.75
2023-01-29T07:51:35.747Z,1014.64
2023-01-29T07:52:35.729Z,1014.66
2023-01-29T07:53:36.700Z,1014.61
2023-01-29T07:54:35.675Z,1014.64
2023-01-29T07:55:35.691Z,1014.57
2023-01-29T07:56:36.676Z,1014.58
2023-01-29T07:57:35.656Z,1014.62
2023-01-29T07:58:36.768Z,1014.54
2023-01-29T07:59:36.695Z,1014.60
2023-01-29T08:00:35.608Z,1014.51
2023-01-29T08:01:35.624Z,1014.50
2023-01-29T08:02:35.626Z,1014.48
2023-01-29T08:03:35.626Z,1014.37
2023-01-29T08:04:35.573Z,1014.29
2023-01-29T08:05:35.564Z,1014.25
2023-01-29T08:06:35.544Z,1014.18
2023-01-29T08:07:35.582Z,1014.14
2023-01-29T08:08:35.569Z,1014.19
2023-01-29T08:09:35.505Z,1014.18
2023-01-29T08:10:35.594Z,1014.19
2023-01-29T08:11:35.497Z,1014.19
2023-01-29T08:12:35.483Z,1014.22
2023-01-29T08:13:35.479Z,1014.17
2023-01-29T08:14:36.507Z,1014.18
2023-01-29T08:15:37.900Z,1014.21
2023-01-29T08:16:35.500Z,1014.17
2023-01-29T08:17:36.046Z,1014.17
2023-01-29T08:18:35.436Z,1014.18
2023-01-29T08:19:35.413Z,1014.11
2023-01-29T08:20:35.398Z,1014.18
2023-01-29T08:21:35.450Z,1014.11
2023-01-29T08:22:35.411Z,1014.20
2023-01-29T08:23:36.402Z,1014.27
2023-01-29T08:24:47.723Z,1014.30
2023-01-29T08:25:36.472Z,1014.37
2023-01-29T08:26:35.363Z,1014.35
2023-01-29T08:27:35.323Z,1014.36
2023-01-29T08:28:35.304Z,1014.27
2023-01-29T08:29:35.324Z,1014.32
2023-01-29T08:30:35.364Z,1014.19
2023-01-29T08:31:35.298Z,1014.21
2023-01-29T08:32:35.290Z,1014.25
2023-01-29T08:33:39.421Z,1014.19
2023-01-29T08:34:35.256Z,1014.23
2023-01-29T08:35:35.245Z,1014.25
2023-01-29T08:36:35.232Z,1014.35
2023-01-29T08:37:35.217Z,1014.36
2023-01-29T08:38:35.221Z,1014.41
2023-01-29T08:39:35.248Z,1014.44
2023-01-29T08:40:35.185Z,1014.47
2023-01-29T08:41:35.172Z,1014.42
2023-01-29T08:42:35.178Z,1014.45
2023-01-29T08:43:35.189Z,1014.37
2023-01-29T08:44:35.153Z,1014.41
2023-01-29T08:45:35.223Z,1014.41
2023-01-29T08:46:36.147Z,1014.36
2023-01-29T08:47:36.130Z,1014.44
2023-01-29T08:48:35.149Z,1014.40
2023-01-29T08:49:35.138Z,1014.50
2023-01-29T08:50:36.096Z,1014.49
2023-01-29T08:51:35.066Z,1014.47
2023-01-29T08:52:36.084Z,1014.42
2023-01-29T08:53:35.072Z,1014.42
2023-01-29T08:54:35.071Z,1014.46
2023-01-29T08:55:36.013Z,1014.45
2023-01-29T08:56:35.039Z,1014.57
2023-01-29T08:57:35.013Z,1014.51
2023-01-29T08:58:34.983Z,1014.60
2023-01-29T08:59:34.998Z,1014.56
2023-01-29T09:00:35.000Z,1014.57
2023-01-29T09:01:35.012Z,1014.54
2023-01-29T09:02:35.007Z,1014.44
2023-01-29T09:03:34.961Z,1014.35
2023-01-29T09:04:35.958Z,1014.36
2023-01-29T09:05:34.927Z,1014.33
2023-01-29T09:06:34.913Z,1014.31
2023-01-29T09:07:35.872Z,1014.28
2023-01-29T09:08:35.873Z,1014.28
2023-01-29T09:09:34.909Z,1014.23
2023-01-29T09:10:34.877Z,1014.27
2023-01-29T09:11:34.852Z,1014.30
2023-01-29T09:12:35.881Z,1014.32
2023-01-29T09:13:34.881Z,1014.30
2023-01-29T09:14:34.820Z,1014.21
2023-01-29T09:15:34.931Z,1014.33
2023-01-29T09:16:34.820Z,1014.26
2023-01-29T09:17:34.786Z,1014.20
2023-01-29T09:18:34.764Z,1014.23
2023-01-29T09:19:35.770Z,1014.25
2023-01-29T09:20:34.749Z,1014.29
2023-01-29T09:21:34.750Z,1014.12
2023-01-29T09:22:34.732Z,1014.15
2023-01-29T09:23:34.712Z,1014.09
2023-01-29T09:24:35.712Z,1014.04
2023-01-29T09:25:35.729Z,1014.01
2023-01-29T09:26:34.750Z,1013.99
2023-01-29T09:27:34.658Z,1013.94
2023-01-29T09:28:34.668Z,1013.91
2023-01-29T09:29:35.962Z,1013.85
2023-01-29T09:30:34.811Z,1013.83
2023-01-29T09:31:34.703Z,1013.84
2023-01-29T09:32:53.748Z,1013.88
2023-01-29T09:33:35.594Z,1013.91
2023-01-29T09:34:34.643Z,1013.85
2023-01-29T09:35:34.615Z,1013.90
2023-01-29T09:36:34.580Z,1013.93
2023-01-29T09:37:34.569Z,1013.93
2023-01-29T09:38:34.545Z,1013.93
2023-01-29T09:39:34.552Z,1013.97
2023-01-29T09:40:34.577Z,1014.02
2023-01-29T09:41:34.535Z,1013.94
2023-01-29T09:42:36.050Z,1014.04
2023-01-29T09:43:34.495Z,1014.09
2023-01-29T09:44:34.491Z,1013.98
2023-01-29T09:45:35.472Z,1013.99
2023-01-29T09:46:35.478Z,1014.05
2023-01-29T09:47:34.454Z,1014.06
2023-01-29T09:48:34.466Z,1014.06
2023-01-29T09:49:34.448Z,1014.05
2023-01-29T09:50:34.429Z,1014.09
2023-01-29T09:51:34.416Z,1014.13
2023-01-29T09:52:34.399Z,1014.05
2023-01-29T09:53:34.389Z,1014.04
2023-01-29T09:54:34.395Z,1014.08
2023-01-29T09:55:34.380Z,1013.98
2023-01-29T09:56:34.403Z,1013.99
2023-01-29T09:57:34.335Z,1013.94
2023-01-29T09:58:34.333Z,1013.90
2023-01-29T09:59:35.339Z,1013.97
2023-01-29T10:00:34.336Z,1013.92
2023-01-29T10:01:34.377Z,1013.81
2023-01-29T10:02:34.284Z,1013.82
2023-01-29T10:03:34.285Z,1013.79
2023-01-29T10:04:34.318Z,1013.75
2023-01-29T10:05:34.267Z,1013.71
2023-01-29T10:06:34.256Z,1013.70
2023-01-29T10:07:34.266Z,1013.65
2023-01-29T10:08:34.239Z,1013.61
2023-01-29T10:09:34.230Z,1013.72
2023-01-29T10:10:34.214Z,1013.62
2023-01-29T10:11:34.186Z,1013.61
2023-01-29T10:12:34.227Z,1013.62
2023-01-29T10:13:34.205Z,1013.64
2023-01-29T10:14:35.183Z,1013.64
2023-01-29T10:15:34.184Z,1013.57
2023-01-29T10:16:34.138Z,1013.63
2023-01-29T10:17:34.137Z,1013.60
2023-01-29T10:18:34.151Z,1013.57
2023-01-29T10:19:34.103Z,1013.58
2023-01-29T10:20:34.109Z,1013.65
2023-01-29T10:21:34.107Z,1013.55
2023-01-29T10:22:34.077Z,1013.47
2023-01-29T10:23:34.708Z,1013.50
2023-01-29T10:24:35.040Z,1013.49
2023-01-29T10:25:34.075Z,1013.48
2023-01-29T10:26:35.100Z,1013.60
2023-01-29T10:27:34.050Z,1013.52
2023-01-29T10:28:34.017Z,1013.52
2023-01-29T10:29:33.992Z,1013.52
2023-01-29T10:30:34.008Z,1013.52
2023-01-29T10:31:34.032Z,1013.47
2023-01-29T10:32:33.971Z,1013.43
2023-01-29T10:33:49.443Z,1013.42
2023-01-29T10:34:34.952Z,1013.31
2023-01-29T10:35:33.948Z,1013.38
2023-01-29T10:36:33.943Z,1013.30
2023-01-29T10:37:33.911Z,1013.33
2023-01-29T10:38:33.909Z,1013.24
2023-01-29T10:39:33.890Z,1013.38
2023-01-29T10:40:33.903Z,1013.30
2023-01-29T10:41:33.885Z,1013.33
2023-01-29T10:42:33.852Z,1013.32
2023-01-29T10:43:33.825Z,1013.29
2023-01-29T10:44:33.861Z,1013.34
2023-01-29T10:45:33.831Z,1013.38
2023-01-29T10:46:33.824Z,1013.27
2023-01-29T10:47:33.851Z,1013.24
2023-01-29T10:48:33.800Z,1013.21
2023-01-29T10:49:34.774Z,1013.10
2023-01-29T10:50:33.779Z,1013.10
2023-01-29T10:51:34.772Z,1013.12
2023-01-29T10:52:33.766Z,1013.17
2023-01-29T10:53:33.790Z,1013.10
2023-01-29T10:54:33.722Z,1013.13
2023-01-29T10:55:34.733Z,1013.23
2023-01-29T10:56:33.703Z,1013.19
2023-01-29T10:57:33.686Z,1013.27
2023-01-29T10:58:33.713Z,1013.18
2023-01-29T10:59:33.684Z,1013.18
2023-01-29T11:00:33.737Z,1013.15
2023-01-29T11:01:33.684Z,1013.14
2023-01-29T11:02:33.739Z,1013.08
2023-01-29T11:03:33.684Z,1013.03
2023-01-29T11:04:33.610Z,1013.07
2023-01-29T11:05:33.624Z,1013.02
2023-01-29T11:06:33.589Z,1013.06
2023-01-29T11:07:33.622Z,1013.06
2023-01-29T11:08:33.552Z,1012.98
2023-01-29T11:09:33.596Z,1013.04
2023-01-29T11:10:34.549Z,1012.99
2023-01-29T11:11:33.538Z,1012.93
2023-01-29T11:12:33.550Z,1012.98
2023-01-29T11:13:33.531Z,1012.92
2023-01-29T11:14:33.721Z,1012.93
2023-01-29T11:15:33.488Z,1012.94
2023-01-29T11:16:33.498Z,1012.98
2023-01-29T11:17:33.475Z,1012.92
2023-01-29T11:18:34.458Z,1012.91
2023-01-29T11:19:33.454Z,1012.92
2023-01-29T11:20:34.430Z,1012.93
2023-01-29T11:21:33.440Z,1012.89
2023-01-29T11:22:33.423Z,1012.85
2023-01-29T11:23:33.432Z,1012.80
2023-01-29T11:24:33.397Z,1012.74
2023-01-29T11:25:33.378Z,1012.64
2023-01-29T11:26:34.442Z,1012.69
2023-01-29T11:27:33.374Z,1012.63
2023-01-29T11:28:33.364Z,1012.66
2023-01-29T11:29:33.358Z,1012.66
2023-01-29T11:30:33.363Z,1012.61
2023-01-29T11:31:34.441Z,1012.62
2023-01-29T11:32:33.352Z,1012.60
2023-01-29T11:33:33.302Z,1012.56
2023-01-29T11:34:33.303Z,1012.49
2023-01-29T11:35:33.330Z,1012.52
2023-01-29T11:36:33.265Z,1012.43
2023-01-29T11:37:33.235Z,1012.50
2023-01-29T11:38:33.720Z,1012.47
2023-01-29T11:39:34.247Z,1012.41
2023-01-29T11:40:33.202Z,1012.41
2023-01-29T11:41:33.191Z,1012.34
2023-01-29T11:42:33.205Z,1012.41
2023-01-29T11:43:33.236Z,1012.42
2023-01-29T11:44:33.200Z,1012.44
2023-01-29T11:45:33.189Z,1012.49
2023-01-29T11:46:33.187Z,1012.58
2023-01-29T11:47:34.125Z,1012.49
2023-01-29T11:48:33.172Z,1012.49
2023-01-29T11:49:33.123Z,1012.48
2023-01-29T11:50:33.129Z,1012.43
2023-01-29T11:51:33.097Z,1012.36
2023-01-29T11:52:33.119Z,1012.39
2023-01-29T11:53:33.146Z,1012.45
2023-01-29T11:54:33.120Z,1012.42
2023-01-29T11:55:48.170Z,1012.37
2023-01-29T11:56:34.032Z,1012.38
2023-01-29T11:57:34.021Z,1012.34
2023-01-29T11:58:33.026Z,1012.25
2023-01-29T11:59:33.070Z,1012.24
2023-01-29T12:00:33.016Z,1012.19
2023-01-29T12:01:32.984Z,1012.15
2023-01-29T12:02:32.985Z,1012.05
2023-01-29T12:03:33.003Z,1012.04
2023-01-29T12:04:32.957Z,1012.00
2023-01-29T12:05:32.988Z,1011.97